This is the latest recevied weather packets stored in our database for station/object M0HPP-13. If no packets are shown the sender has not sent any weather packets the latest 10 day(s).
| Time | Temp. | Humidity | Pressure | Rain* | Wind** | Luminosity | Snow |
|---|---|---|---|---|---|---|---|
| 1787495886 | 18.33° C | 63% | 1024.3 hPa | 0 mm | - | 270 W/m² | - |
| 1787495286 | 17.22° C | 72% | 1024.3 hPa | 0 mm | - | 342 W/m² | - |
| 1787494686 | 16.67° C | 75% | 1024.4 hPa | 0 mm | - | 253 W/m² | - |
| 1787494086 | 16.67° C | 75% | 1024.4 hPa | 0 mm | - | 249 W/m² | - |
| 1787493486 | 16.11° C | 79% | 1024.5 hPa | 0 mm | - | 305 W/m² | - |
| 1787492886 | 16.11° C | 79% | 1024.6 hPa | 0 mm | - | 231 W/m² | - |
| 1787492286 | 15.56° C | 81% | 1024.6 hPa | 0 mm | - | 235 W/m² | - |
| 1787491686 | 15.56° C | 81% | 1024.5 hPa | 0 mm | - | 196 W/m² | - |
| 1787491086 | 15.56° C | 81% | 1024.5 hPa | 0 mm | - | 170 W/m² | - |
| 1787490486 | 15.56° C | 79% | 1024.4 hPa | 0 mm | - | 168 W/m² | - |
| 1787489886 | 16.11° C | 75% | 1024.3 hPa | 0 mm | - | 154 W/m² | - |
| 1787489286 | 17.78° C | 68% | 1024.4 hPa | 0 mm | - | 157 W/m² | - |
| 1787488686 | 17.78° C | 67% | 1024.3 hPa | 0 mm | - | 237 W/m² | - |
| 1787488086 | 17.78° C | 69% | 1024.3 hPa | 0 mm | - | 235 W/m² | - |
| 1787487486 | 17.22° C | 69% | 1024.3 hPa | 0 mm | - | 197 W/m² | - |
| 1787486886 | 19.44° C | 62% | 1024.2 hPa | 0 mm | - | 162 W/m² | - |
| 1787486286 | 20° C | 59% | 1024.2 hPa | 0 mm | - | 403 W/m² | - |
| 1787485686 | 19.44° C | 61% | 1024.3 hPa | 0 mm | - | 414 W/m² | - |
| 1787485086 | 20.56° C | 59% | 1024.2 hPa | 0 mm | - | 290 W/m² | - |
| 1787484486 | 20° C | 61% | 1024.2 hPa | 0 mm | - | 550 W/m² | - |
| 1787483886 | 20° C | 62% | 1024.2 hPa | 0 mm | - | 576 W/m² | - |
| 1787483286 | 19.44° C | 65% | 1024.2 hPa | 0 mm | - | 498 W/m² | - |
| 1787482686 | 18.89° C | 66% | 1024.2 hPa | 0 mm | - | 379 W/m² | - |
| 1787482086 | 17.78° C | 70% | 1024.2 hPa | 0 mm | - | 514 W/m² | - |
| 1787481486 | 17.22° C | 71% | 1024.3 hPa | 0 mm | - | 257 W/m² | - |
* Rain latest hour (hover to see other rain measurements)
** Current wind speed in m/s (hover to see current wind gust speed)